Terminal Aerodrome Forecast
Issued by NWS

Current Version | Previous Version | Text Only | Print | Product List | Glossary Off
Versions: 1 2 3 4 5 6 7 8 9 10 11 12 13 14 15 16 17 18 19 20 21 22 23 24

187
FTUS41 KRLX 122125 AAB
TAFCKB
TAF AMD
KCKB 122125Z 1221/1318 27005KT 4SM -SN SCT020 OVC035
      TEMPO 1221/1223 2SM -SN OVC025
     FM122300 27010G19KT P6SM SCT020 OVC050
     FM130400 30012G24KT 2SM -SHSN OVC012
     FM130700 32010G22KT 5SM -SHSN OVC015
     FM131400 33013G25KT 6SM -SHSN BKN020=

USA.gov is the U.S. government's official web portal to all federal, state and local government web resources and services.